sensor_id;sensor_type;location;lat;lon;timestamp;temperature;humidity
23813;DHT22;12087;45.190;5.688;2022-11-15T00:04:30;12.20;99.90
23813;DHT22;12087;45.190;5.688;2022-11-15T00:09:54;12.20;99.90
23813;DHT22;12087;45.190;5.688;2022-11-15T00:15:16;12.20;99.90
23813;DHT22;12087;45.190;5.688;2022-11-15T00:20:38;12.30;99.90
23813;DHT22;12087;45.190;5.688;2022-11-15T00:26:02;12.30;99.90
23813;DHT22;12087;45.190;5.688;2022-11-15T00:31:24;12.30;99.90
23813;DHT22;12087;45.190;5.688;2022-11-15T00:36:47;12.30;99.90
23813;DHT22;12087;45.190;5.688;2022-11-15T00:42:12;12.30;99.90
23813;DHT22;12087;45.190;5.688;2022-11-15T00:47:35;12.30;99.90
23813;DHT22;12087;45.190;5.688;2022-11-15T00:52:57;12.30;99.90
23813;DHT22;12087;45.190;5.688;2022-11-15T00:58:22;12.20;99.90
23813;DHT22;12087;45.190;5.688;2022-11-15T01:03:44;12.20;99.90
23813;DHT22;12087;45.190;5.688;2022-11-15T01:09:06;12.20;99.90
23813;DHT22;12087;45.190;5.688;2022-11-15T01:14:30;12.20;99.90
23813;DHT22;12087;45.190;5.688;2022-11-15T01:19:53;12.10;99.90
23813;DHT22;12087;45.190;5.688;2022-11-15T01:25:15;12.10;99.90
23813;DHT22;12087;45.190;5.688;2022-11-15T01:30:43;12.10;99.90
23813;DHT22;12087;45.190;5.688;2022-11-15T01:36:07;12.10;99.90
23813;DHT22;12087;45.190;5.688;2022-11-15T01:41:32;12.00;99.90
23813;DHT22;12087;45.190;5.688;2022-11-15T01:46:58;12.00;99.90
23813;DHT22;12087;45.190;5.688;2022-11-15T01:52:24;11.90;99.90
23813;DHT22;12087;45.190;5.688;2022-11-15T01:57:50;11.90;99.90
23813;DHT22;12087;45.190;5.688;2022-11-15T02:03:14;11.90;99.90
23813;DHT22;12087;45.190;5.688;2022-11-15T02:08:37;11.90;99.90
23813;DHT22;12087;45.190;5.688;2022-11-15T02:13:59;11.80;99.90
23813;DHT22;12087;45.190;5.688;2022-11-15T02:19:44;11.80;99.90
23813;DHT22;12087;45.190;5.688;2022-11-15T02:25:26;11.80;99.90
23813;DHT22;12087;45.190;5.688;2022-11-15T02:30:55;11.80;99.90
23813;DHT22;12087;45.190;5.688;2022-11-15T02:36:28;11.80;99.90
23813;DHT22;12087;45.190;5.688;2022-11-15T02:42:00;11.80;99.90
23813;DHT22;12087;45.190;5.688;2022-11-15T02:47:27;11.80;99.90
23813;DHT22;12087;45.190;5.688;2022-11-15T02:52:54;11.80;99.90
23813;DHT22;12087;45.190;5.688;2022-11-15T02:58:43;11.80;99.90
23813;DHT22;12087;45.190;5.688;2022-11-15T03:04:18;11.80;99.90
23813;DHT22;12087;45.190;5.688;2022-11-15T03:09:50;11.80;99.90
23813;DHT22;12087;45.190;5.688;2022-11-15T03:15:18;11.80;99.90
23813;DHT22;12087;45.190;5.688;2022-11-15T03:20:45;11.80;99.90
23813;DHT22;12087;45.190;5.688;2022-11-15T03:26:11;11.80;99.90
23813;DHT22;12087;45.190;5.688;2022-11-15T03:31:37;11.80;99.90
23813;DHT22;12087;45.190;5.688;2022-11-15T03:37:12;11.80;99.90
23813;DHT22;12087;45.190;5.688;2022-11-15T03:42:39;11.70;99.90
23813;DHT22;12087;45.190;5.688;2022-11-15T03:48:10;11.70;99.90
23813;DHT22;12087;45.190;5.688;2022-11-15T03:53:35;11.70;99.90
23813;DHT22;12087;45.190;5.688;2022-11-15T03:58:58;11.70;99.90
23813;DHT22;12087;45.190;5.688;2022-11-15T04:04:20;11.70;99.90
23813;DHT22;12087;45.190;5.688;2022-11-15T04:09:43;11.70;99.90
23813;DHT22;12087;45.190;5.688;2022-11-15T04:15:25;11.70;99.90
23813;DHT22;12087;45.190;5.688;2022-11-15T04:20:47;11.60;99.90
23813;DHT22;12087;45.190;5.688;2022-11-15T04:26:28;11.60;99.90
23813;DHT22;12087;45.190;5.688;2022-11-15T04:31:50;11.60;99.90
23813;DHT22;12087;45.190;5.688;2022-11-15T04:37:12;11.60;99.90
23813;DHT22;12087;45.190;5.688;2022-11-15T04:42:37;11.60;99.90
23813;DHT22;12087;45.190;5.688;2022-11-15T04:48:02;11.60;99.90
23813;DHT22;12087;45.190;5.688;2022-11-15T04:53:24;11.60;99.90
23813;DHT22;12087;45.190;5.688;2022-11-15T04:58:50;11.70;99.90
23813;DHT22;12087;45.190;5.688;2022-11-15T05:04:12;11.70;99.90
23813;DHT22;12087;45.190;5.688;2022-11-15T05:09:43;11.60;99.90
23813;DHT22;12087;45.190;5.688;2022-11-15T05:15:08;11.70;99.90
23813;DHT22;12087;45.190;5.688;2022-11-15T05:20:30;11.70;99.90
23813;DHT22;12087;45.190;5.688;2022-11-15T05:25:52;11.70;99.90
23813;DHT22;12087;45.190;5.688;2022-11-15T05:31:16;11.70;99.90
23813;DHT22;12087;45.190;5.688;2022-11-15T05:36:41;11.60;99.90
23813;DHT22;12087;45.190;5.688;2022-11-15T05:42:07;11.60;99.90
23813;DHT22;12087;45.190;5.688;2022-11-15T05:47:33;11.60;99.90
23813;DHT22;12087;45.190;5.688;2022-11-15T05:52:56;11.70;99.90
23813;DHT22;12087;45.190;5.688;2022-11-15T05:58:19;11.70;99.90
23813;DHT22;12087;45.190;5.688;2022-11-15T06:03:43;11.70;99.90
23813;DHT22;12087;45.190;5.688;2022-11-15T06:09:05;11.60;99.90
23813;DHT22;12087;45.190;5.688;2022-11-15T06:14:27;11.60;99.90
23813;DHT22;12087;45.190;5.688;2022-11-15T06:19:51;11.70;99.90
23813;DHT22;12087;45.190;5.688;2022-11-15T06:25:14;11.60;99.90
23813;DHT22;12087;45.190;5.688;2022-11-15T06:30:36;11.60;99.90
23813;DHT22;12087;45.190;5.688;2022-11-15T06:36:02;11.60;99.90
23813;DHT22;12087;45.190;5.688;2022-11-15T06:41:24;11.60;99.90
23813;DHT22;12087;45.190;5.688;2022-11-15T06:46:46;11.60;99.90
23813;DHT22;12087;45.190;5.688;2022-11-15T06:52:11;11.50;99.90
23813;DHT22;12087;45.190;5.688;2022-11-15T06:57:33;11.60;99.90
23813;DHT22;12087;45.190;5.688;2022-11-15T07:02:59;11.60;99.90
23813;DHT22;12087;45.190;5.688;2022-11-15T07:08:23;11.60;99.90
23813;DHT22;12087;45.190;5.688;2022-11-15T07:13:48;11.60;99.90
23813;DHT22;12087;45.190;5.688;2022-11-15T07:19:11;11.60;99.90
23813;DHT22;12087;45.190;5.688;2022-11-15T07:24:34;11.60;99.90
23813;DHT22;12087;45.190;5.688;2022-11-15T07:29:56;11.60;99.90
23813;DHT22;12087;45.190;5.688;2022-11-15T07:35:19;11.60;99.90
23813;DHT22;12087;45.190;5.688;2022-11-15T07:40:42;11.60;99.90
23813;DHT22;12087;45.190;5.688;2022-11-15T07:46:06;11.70;99.90
23813;DHT22;12087;45.190;5.688;2022-11-15T07:51:35;11.70;99.90
23813;DHT22;12087;45.190;5.688;2022-11-15T07:57:01;11.80;99.90
23813;DHT22;12087;45.190;5.688;2022-11-15T08:02:26;11.80;99.90
23813;DHT22;12087;45.190;5.688;2022-11-15T08:07:50;11.80;99.90
23813;DHT22;12087;45.190;5.688;2022-11-15T08:13:15;11.80;99.90
23813;DHT22;12087;45.190;5.688;2022-11-15T08:18:41;11.90;99.90
23813;DHT22;12087;45.190;5.688;2022-11-15T08:24:08;11.90;99.90
23813;DHT22;12087;45.190;5.688;2022-11-15T08:29:35;12.00;99.90
23813;DHT22;12087;45.190;5.688;2022-11-15T08:34:58;12.10;99.90
23813;DHT22;12087;45.190;5.688;2022-11-15T08:40:21;12.10;99.90
23813;DHT22;12087;45.190;5.688;2022-11-15T08:45:44;12.20;99.90
23813;DHT22;12087;45.190;5.688;2022-11-15T08:51:07;12.20;99.90
23813;DHT22;12087;45.190;5.688;2022-11-15T08:56:29;12.30;99.90
23813;DHT22;12087;45.190;5.688;2022-11-15T09:01:52;12.30;99.90
23813;DHT22;12087;45.190;5.688;2022-11-15T09:07:15;12.40;99.90
23813;DHT22;12087;45.190;5.688;2022-11-15T09:12:37;12.50;99.90
23813;DHT22;12087;45.190;5.688;2022-11-15T09:18:01;12.50;99.90
23813;DHT22;12087;45.190;5.688;2022-11-15T09:23:23;12.50;99.90
23813;DHT22;12087;45.190;5.688;2022-11-15T09:28:51;12.60;99.90
23813;DHT22;12087;45.190;5.688;2022-11-15T09:34:19;12.60;99.90
23813;DHT22;12087;45.190;5.688;2022-11-15T09:39:46;12.60;99.90
23813;DHT22;12087;45.190;5.688;2022-11-15T09:45:17;12.70;99.90
23813;DHT22;12087;45.190;5.688;2022-11-15T09:50:49;12.80;99.90
23813;DHT22;12087;45.190;5.688;2022-11-15T09:56:18;12.80;99.90
23813;DHT22;12087;45.190;5.688;2022-11-15T10:01:55;12.90;99.90
23813;DHT22;12087;45.190;5.688;2022-11-15T10:07:26;13.00;99.90
23813;DHT22;12087;45.190;5.688;2022-11-15T10:12:50;13.10;99.90
23813;DHT22;12087;45.190;5.688;2022-11-15T10:18:18;13.20;99.90
23813;DHT22;12087;45.190;5.688;2022-11-15T10:23:44;13.30;99.90
23813;DHT22;12087;45.190;5.688;2022-11-15T10:29:07;13.30;99.90
23813;DHT22;12087;45.190;5.688;2022-11-15T10:34:35;13.40;99.90
23813;DHT22;12087;45.190;5.688;2022-11-15T10:40:16;13.40;99.90
23813;DHT22;12087;45.190;5.688;2022-11-15T10:45:39;13.50;99.90
23813;DHT22;12087;45.190;5.688;2022-11-15T10:51:19;13.40;99.90
23813;DHT22;12087;45.190;5.688;2022-11-15T10:56:49;13.50;99.90
23813;DHT22;12087;45.190;5.688;2022-11-15T11:02:28;13.40;99.90
23813;DHT22;12087;45.190;5.688;2022-11-15T11:07:57;13.50;99.90
23813;DHT22;12087;45.190;5.688;2022-11-15T11:13:25;13.60;99.90
23813;DHT22;12087;45.190;5.688;2022-11-15T11:19:03;13.60;99.90
23813;DHT22;12087;45.190;5.688;2022-11-15T11:24:34;13.60;99.90
23813;DHT22;12087;45.190;5.688;2022-11-15T11:30:11;13.60;99.90
23813;DHT22;12087;45.190;5.688;2022-11-15T11:35:46;13.70;99.90
23813;DHT22;12087;45.190;5.688;2022-11-15T11:41:18;13.80;99.90
23813;DHT22;12087;45.190;5.688;2022-11-15T11:46:55;13.80;99.90
23813;DHT22;12087;45.190;5.688;2022-11-15T11:52:20;13.90;99.90
23813;DHT22;12087;45.190;5.688;2022-11-15T11:57:48;14.00;99.90
23813;DHT22;12087;45.190;5.688;2022-11-15T12:03:25;14.00;99.90
23813;DHT22;12087;45.190;5.688;2022-11-15T12:08:52;14.00;99.90
23813;DHT22;12087;45.190;5.688;2022-11-15T12:14:25;14.10;99.90
23813;DHT22;12087;45.190;5.688;2022-11-15T12:19:51;14.10;99.90
23813;DHT22;12087;45.190;5.688;2022-11-15T12:25:18;14.20;99.90
23813;DHT22;12087;45.190;5.688;2022-11-15T12:30:45;14.30;99.90
23813;DHT22;12087;45.190;5.688;2022-11-15T12:36:29;14.30;99.90
23813;DHT22;12087;45.190;5.688;2022-11-15T12:47:47;14.40;99.90
23813;DHT22;12087;45.190;5.688;2022-11-15T12:53:28;14.40;99.90
23813;DHT22;12087;45.190;5.688;2022-11-15T12:58:53;14.50;99.90
23813;DHT22;12087;45.190;5.688;2022-11-15T13:04:23;14.40;99.90
23813;DHT22;12087;45.190;5.688;2022-11-15T13:09:53;14.50;99.90
23813;DHT22;12087;45.190;5.688;2022-11-15T13:15:35;14.50;99.90
23813;DHT22;12087;45.190;5.688;2022-11-15T13:21:21;14.50;99.90
23813;DHT22;12087;45.190;5.688;2022-11-15T13:27:12;14.60;99.90
23813;DHT22;12087;45.190;5.688;2022-11-15T13:32:44;14.60;99.90
23813;DHT22;12087;45.190;5.688;2022-11-15T13:38:19;14.70;99.90
23813;DHT22;12087;45.190;5.688;2022-11-15T13:43:49;14.70;99.90
23813;DHT22;12087;45.190;5.688;2022-11-15T13:49:12;14.70;99.90
23813;DHT22;12087;45.190;5.688;2022-11-15T13:54:36;14.70;99.90
23813;DHT22;12087;45.190;5.688;2022-11-15T14:00:05;14.70;99.90
23813;DHT22;12087;45.190;5.688;2022-11-15T14:05:27;14.70;99.90
23813;DHT22;12087;45.190;5.688;2022-11-15T14:11:13;14.70;99.90
23813;DHT22;12087;45.190;5.688;2022-11-15T14:16:39;14.70;99.90
23813;DHT22;12087;45.190;5.688;2022-11-15T14:22:10;14.70;99.90
23813;DHT22;12087;45.190;5.688;2022-11-15T14:27:32;14.70;99.90
23813;DHT22;12087;45.190;5.688;2022-11-15T14:32:56;14.70;99.90
23813;DHT22;12087;45.190;5.688;2022-11-15T14:38:18;14.70;99.90
23813;DHT22;12087;45.190;5.688;2022-11-15T14:43:41;14.70;99.90
23813;DHT22;12087;45.190;5.688;2022-11-15T14:49:04;14.70;99.90
23813;DHT22;12087;45.190;5.688;2022-11-15T14:54:26;14.70;99.90
23813;DHT22;12087;45.190;5.688;2022-11-15T14:59:49;14.60;99.90
23813;DHT22;12087;45.190;5.688;2022-11-15T15:05:17;14.60;99.90
23813;DHT22;12087;45.190;5.688;2022-11-15T15:10:42;14.50;99.90
23813;DHT22;12087;45.190;5.688;2022-11-15T15:16:19;14.50;99.90
23813;DHT22;12087;45.190;5.688;2022-11-15T15:21:49;14.50;99.90
23813;DHT22;12087;45.190;5.688;2022-11-15T15:27:19;14.50;99.90
23813;DHT22;12087;45.190;5.688;2022-11-15T15:32:54;14.50;99.90
23813;DHT22;12087;45.190;5.688;2022-11-15T15:38:22;14.50;99.90
23813;DHT22;12087;45.190;5.688;2022-11-15T15:43:45;14.50;99.90
23813;DHT22;12087;45.190;5.688;2022-11-15T15:49:09;14.40;99.90
23813;DHT22;12087;45.190;5.688;2022-11-15T15:54:33;14.40;99.90
23813;DHT22;12087;45.190;5.688;2022-11-15T15:59:55;14.40;99.90
23813;DHT22;12087;45.190;5.688;2022-11-15T16:05:17;14.30;99.90
23813;DHT22;12087;45.190;5.688;2022-11-15T16:10:41;14.30;99.90
23813;DHT22;12087;45.190;5.688;2022-11-15T16:16:07;14.20;99.90
23813;DHT22;12087;45.190;5.688;2022-11-15T16:21:31;14.20;99.90
23813;DHT22;12087;45.190;5.688;2022-11-15T16:26:54;14.20;99.90
23813;DHT22;12087;45.190;5.688;2022-11-15T16:32:16;14.20;99.90
23813;DHT22;12087;45.190;5.688;2022-11-15T16:37:39;14.20;99.90
23813;DHT22;12087;45.190;5.688;2022-11-15T16:43:03;14.10;99.90
23813;DHT22;12087;45.190;5.688;2022-11-15T16:48:27;14.10;99.90
23813;DHT22;12087;45.190;5.688;2022-11-15T16:53:49;14.10;99.90
23813;DHT22;12087;45.190;5.688;2022-11-15T16:59:16;14.10;99.90
23813;DHT22;12087;45.190;5.688;2022-11-15T17:04:39;14.10;99.90
23813;DHT22;12087;45.190;5.688;2022-11-15T17:10:02;14.10;99.90
23813;DHT22;12087;45.190;5.688;2022-11-15T17:15:25;14.10;99.90
23813;DHT22;12087;45.190;5.688;2022-11-15T17:20:48;14.10;99.90
23813;DHT22;12087;45.190;5.688;2022-11-15T17:26:11;14.00;99.90
23813;DHT22;12087;45.190;5.688;2022-11-15T17:31:35;14.00;99.90
23813;DHT22;12087;45.190;5.688;2022-11-15T17:36:58;14.00;99.90
23813;DHT22;12087;45.190;5.688;2022-11-15T17:42:20;14.00;99.90
23813;DHT22;12087;45.190;5.688;2022-11-15T17:47:44;14.00;99.90
23813;DHT22;12087;45.190;5.688;2022-11-15T17:53:06;14.00;99.90
23813;DHT22;12087;45.190;5.688;2022-11-15T17:58:29;14.00;99.90
23813;DHT22;12087;45.190;5.688;2022-11-15T18:03:54;14.00;99.90
23813;DHT22;12087;45.190;5.688;2022-11-15T18:09:16;14.00;99.90
23813;DHT22;12087;45.190;5.688;2022-11-15T18:14:41;14.00;99.90
23813;DHT22;12087;45.190;5.688;2022-11-15T18:20:05;14.00;99.90
23813;DHT22;12087;45.190;5.688;2022-11-15T18:25:28;14.00;99.90
23813;DHT22;12087;45.190;5.688;2022-11-15T18:30:50;13.90;99.90
23813;DHT22;12087;45.190;5.688;2022-11-15T18:37:02;13.90;99.90
23813;DHT22;12087;45.190;5.688;2022-11-15T18:43:00;13.90;99.90
23813;DHT22;12087;45.190;5.688;2022-11-15T19:07:41;13.70;99.90
23813;DHT22;12087;45.190;5.688;2022-11-15T19:13:03;13.70;99.90
23813;DHT22;12087;45.190;5.688;2022-11-15T19:18:26;13.70;99.90
23813;DHT22;12087;45.190;5.688;2022-11-15T19:23:50;13.70;99.90
23813;DHT22;12087;45.190;5.688;2022-11-15T19:29:14;13.60;99.90
23813;DHT22;12087;45.190;5.688;2022-11-15T19:34:37;13.60;99.90
23813;DHT22;12087;45.190;5.688;2022-11-15T19:40:03;13.60;99.90
23813;DHT22;12087;45.190;5.688;2022-11-15T19:45:25;13.60;99.90
23813;DHT22;12087;45.190;5.688;2022-11-15T19:50:48;13.60;99.90
23813;DHT22;12087;45.190;5.688;2022-11-15T19:56:16;13.50;99.90
23813;DHT22;12087;45.190;5.688;2022-11-15T20:01:38;13.60;99.90
23813;DHT22;12087;45.190;5.688;2022-11-15T20:07:01;13.60;99.90
23813;DHT22;12087;45.190;5.688;2022-11-15T20:12:25;13.60;99.90
23813;DHT22;12087;45.190;5.688;2022-11-15T20:17:47;13.60;99.90
23813;DHT22;12087;45.190;5.688;2022-11-15T20:23:09;13.60;99.90
23813;DHT22;12087;45.190;5.688;2022-11-15T20:28:35;13.60;99.90
23813;DHT22;12087;45.190;5.688;2022-11-15T20:33:57;13.60;99.90
23813;DHT22;12087;45.190;5.688;2022-11-15T20:39:20;13.50;99.90
23813;DHT22;12087;45.190;5.688;2022-11-15T20:44:43;13.50;99.90
23813;DHT22;12087;45.190;5.688;2022-11-15T21:02:22;13.50;99.90
23813;DHT22;12087;45.190;5.688;2022-11-15T21:08:19;13.40;99.90
23813;DHT22;12087;45.190;5.688;2022-11-15T21:14:37;13.50;99.90
23813;DHT22;12087;45.190;5.688;2022-11-15T23:25:45;13.20;99.90
23813;DHT22;12087;45.190;5.688;2022-11-15T23:31:13;13.10;99.90
23813;DHT22;12087;45.190;5.688;2022-11-15T23:41:57;13.10;99.90
